Flight Track Log - Related Links

Times and Time Zones

All times are in EDT time to prevent confusion due to time zone crossing. See the SWA3313 flight status page for this flight to view local times or setup timezone preferences in your user account.

Time Position Orientation Groundspeed Altitude Reporting Facility
EDT Latitude Longitude Course Direction KTS MPH feet Rate Location/Type
Sun 08:37:59 PM 39.1333 -76.7000 211° Southwest 227 261 2,700  Level Potomac TRACON
Sun 08:39:00 PM 39.1833 -76.7500 322° Northwest 240 276 5,200 2,529 Climbing Potomac TRACON
Sun 08:40:00 PM 39.2000 -76.8500 282° West 284 327 7,800 2,800 Climbing Potomac TRACON
Sun 08:41:00 PM 39.2167 -76.9500 282° West 296 341 10,800 2,700 Climbing Potomac TRACON
Sun 08:42:00 PM 39.2167 -77.0833 270° West 353 406 13,200 2,600 Climbing Potomac TRACON
Sun 08:43:00 PM 39.0435 -77.2754 211° Southwest  Level FlightAware Approximate
Sun 08:43:00 PM 39.1667 -77.1833 237° Southwest 374 430 16,000  Level Potomac TRACON
Sun 08:44:39 PM 39.0325 -77.3097 216° Southwest 403 464 20,300 2,566 Climbing Washington Center
Sun 08:45:39 PM 38.9275 -77.3528 198° South 396 456 22,800 1,350 Climbing Washington Center
Sun 08:46:39 PM 38.8147 -77.3767 189° South 402 463 23,000 102 Climbing Washington Center
Sun 08:47:37 PM 38.7039 -77.4033 191° South 408 470 23,000 958 Level Washington Center
Sun 08:48:38 PM 38.5925 -77.4564 200° South 413 475 24,900 1,835 Climbing Washington Center
Sun 08:49:38 PM 38.4958 -77.5097 203° Southwest 424 488 26,700 1,835 Climbing Washington Center
Sun 08:50:39 PM 38.3942 -77.6025 216° Southwest 441 507 28,600 1,916 Climbing Washington Center
Sun 08:51:37 PM 38.3047 -77.7136 224° Southwest 441 507 30,500 2,118 Climbing Washington Center
Sun 08:52:38 PM 38.2172 -77.8197 224° Southwest 441 507 32,800 1,230 Climbing Washington Center
Sun 08:53:39 PM 38.1275 -77.9278 223° Southwest 446 513 33,000 101 Climbing Washington Center
Sun 08:54:37 PM 38.0400 -78.0333 224° Southwest 440 506 33,000  Level Washington Center
Sun 08:55:37 PM 37.9544 -78.1306 222° Southwest 430 495 33,000  Level Washington Center
Sun 08:56:37 PM 37.8603 -78.2483 225° Southwest 424 488 33,000  Level Washington Center
Sun 08:57:39 PM 37.7744 -78.3503 223° Southwest 429 494 33,000  Level Washington Center
Sun 08:58:37 PM 37.6931 -78.4444 222° Southwest 438 504 33,000  Level Washington Center
Sun 08:59:38 PM 37.6050 -78.5433 222° Southwest 438 504 33,000  Level Washington Center
Sun 09:00:39 PM 37.5169 -78.6447 222° Southwest 433 498 33,000  Level Washington Center
Sun 09:01:38 PM 37.4289 -78.7458 222° Southwest 433 498 33,000  Level Washington Center
Sun 09:02:38 PM 37.3406 -78.8467 222° Southwest 433 498 33,000  Level Washington Center
Sun 09:03:38 PM 37.2436 -78.9600 223° Southwest 433 498 33,000  Level Washington Center
Sun 09:04:39 PM 37.1575 -79.0578 222° Southwest 433 498 33,000  Level Washington Center
Sun 09:05:37 PM 37.0692 -79.1553 221° Southwest 433 498 33,000  Level Washington Center
Sun 09:06:39 PM 36.9825 -79.2553 223° Southwest 428 493 33,000  Level Washington Center
Sun 09:07:39 PM 36.8983 -79.3528 223° Southwest 433 498 33,000  Level Washington Center
Sun 09:08:37 PM 36.8117 -79.4522 223° Southwest 433 498 33,000  Level Washington Center
Sun 09:09:38 PM 36.7336 -79.5392 222° Southwest 433 498 33,000 -1,500 Level Washington Center
Sun 09:11:33 PM 36.5664 -79.7247 222° Southwest 433 498 28,600 -2,263 Descending Atlanta Center
Sun 09:12:33 PM 36.4861 -79.8144 222° Southwest 415 478 26,400 -2,200 Descending Atlanta Center
Sun 09:13:33 PM 36.4036 -79.9064 222° Southwest 405 466 24,200 -2,150 Descending Atlanta Center
Sun 09:14:33 PM 36.3275 -79.9928 222° Southwest 392 451 22,100 -1,100 Descending Atlanta Center
Sun 09:15:33 PM 36.2342 -80.0747 215° Southwest 379 436 22,000 -450 Descending Atlanta Center
Sun 09:16:33 PM 36.1508 -80.1456 214° Southwest 374 430 21,200 -1,600 Descending Atlanta Center
Sun 09:17:33 PM 36.0633 -80.2167 213° Southwest 374 430 18,800 -2,336 Descending Atlanta Center
Sun 09:18:26 PM 35.9967 -80.2814 218° Southwest 354 407 16,800 -2,317 Descending Atlanta Center
Sun 09:19:14 PM 35.9275 -80.3383 214° Southwest 352 405 14,900 -2,060 Descending Atlanta Center
Sun 09:19:33 PM 35.9050 -80.3572 214° Southwest 364 419 14,500 -1,433 Descending Atlanta Center
Sun 09:20:21 PM 35.8442 -80.4114 216° Southwest 336 387 13,300 -936 Descending Atlanta Center
Sun 09:21:22 PM 35.7769 -80.4681 214° Southwest 288 331 12,800 -934 Descending Atlanta Center
Sun 09:22:23 PM 35.7139 -80.5219 215° Southwest 262 302 11,400 -1,426 Descending Atlanta Center
Sun 09:23:24 PM 35.6525 -80.5706 213° Southwest 266 306 9,900 -1,108 Descending Atlanta Center
Sun 09:24:33 PM 35.5792 -80.6325 214° Southwest 277 319 9,000 -393 Descending Atlanta Center
Sun 09:25:26 PM 35.5261 -80.6756 213° Southwest 266 306 9,100 53 Climbing Atlanta Center
Sun 09:26:27 PM 35.4608 -80.7267 213° Southwest 266 306 9,100  Level Atlanta Center
Sun 09:27:28 PM 35.4039 -80.7800 217° Southwest 263 303 9,100  Level Atlanta Center
Sun 09:28:35 PM 35.3322 -80.8361 213° Southwest 262 302 9,100  Level Atlanta Center
Sun 09:29:35 PM 35.2633 -80.8389 182° South 238 274 9,100 -738 Level Atlanta Center
Sun 09:30:37 PM 35.1964 -80.8311 175° South 241 277 7,600 -1,475 Descending Atlanta Center
Sun 09:31:37 PM 35.1297 -80.8261 176° South 237 273 6,100 -1,409 Descending Atlanta Center
Sun 09:32:32 PM 35.0669 -80.8211 176° South 237 273 4,900 -983 Descending Atlanta Center
Sun 09:33:33 PM 35.0061 -80.8158 176° South 214 246 4,200 -414 Descending Atlanta Center
Sun 09:34:28 PM 34.9561 -80.8128 177° South 190 219 4,100 -52 Descending Atlanta Center
Sun 09:35:28 PM 34.9039 -80.8097 177° South 193 222 4,100  Level Atlanta Center
Sun 09:36:29 PM 34.8633 -80.8592 225° Southwest 242 278 4,100  Level Atlanta Center
Sun 09:37:36 PM 34.8939 -80.9114 306° West 227 261 4,100  Level Atlanta Center
Sun 09:38:31 PM 34.9503 -80.9167 356° North 212 244 4,100  Level Atlanta Center
Sun 09:39:32 PM 35.0111 -80.9222 356° North 214 246 4,100 -393 Level Atlanta Center
Sun 09:40:33 PM 35.0717 -80.9250 358° North 217 250 3,300 -992 Descending Atlanta Center
Sun 09:41:45 PM 35.1406 -80.9325 355° North 196 226 1,900 -947 Descending Atlanta Center
Sun 09:42:46 PM 35.1803 -80.9361 356° North 138 159 1,200 -689 Descending Atlanta Center
Sun 09:44:00 PM 35.2000 -80.9333 North  Level FlightAware Approximate
Sun 09:51:00 PM 35.2137 -80.9491 North  Level Estimated

Login

Don't have an account? Register now (free) for customized features, flight alerts, and more!